createdAt,value
2023-03-22T00:01:30.954Z,71.00
2023-03-22T00:03:57.935Z,71.10
2023-03-22T00:06:24.955Z,71.20
2023-03-22T00:08:53.140Z,71.20
2023-03-22T00:11:22.586Z,71.30
2023-03-22T00:13:52.373Z,71.30
2023-03-22T00:16:19.947Z,71.30
2023-03-22T00:18:46.879Z,71.30
2023-03-22T00:21:15.739Z,71.20
2023-03-22T00:23:43.241Z,71.20
2023-03-22T00:26:12.064Z,71.30
2023-03-22T00:28:39.009Z,71.30
2023-03-22T00:31:06.743Z,71.20
2023-03-22T00:33:33.806Z,71.20
2023-03-22T00:36:03.174Z,71.30
2023-03-22T00:38:43.011Z,71.30
2023-03-22T00:41:22.362Z,71.40
2023-03-22T00:43:50.742Z,71.50
2023-03-22T00:46:19.810Z,71.40
2023-03-22T00:48:46.503Z,71.40
2023-03-22T00:51:14.161Z,71.50
2023-03-22T00:53:43.094Z,71.60
2023-03-22T00:56:14.295Z,71.60
2023-03-22T00:58:42.041Z,71.70
2023-03-22T01:01:08.839Z,71.70
2023-03-22T01:03:35.503Z,71.80
2023-03-22T01:06:02.552Z,71.80
2023-03-22T01:08:33.248Z,71.90
2023-03-22T01:11:01.309Z,71.80
2023-03-22T01:13:28.920Z,71.60
2023-03-22T01:15:55.681Z,71.60
2023-03-22T01:18:22.300Z,71.40
2023-03-22T01:20:48.909Z,71.40
2023-03-22T01:23:15.837Z,71.40
2023-03-22T01:25:42.690Z,71.40
2023-03-22T01:28:09.725Z,71.30
2023-03-22T01:30:38.637Z,71.30
2023-03-22T01:33:07.485Z,71.20
2023-03-22T01:35:36.029Z,71.30
2023-03-22T01:38:03.176Z,71.30
2023-03-22T01:40:29.826Z,71.30
2023-03-22T01:42:56.737Z,71.30
2023-03-22T01:45:33.595Z,71.30
2023-03-22T01:48:11.239Z,71.40
2023-03-22T01:50:42.575Z,71.40
2023-03-22T01:53:13.646Z,71.30
2023-03-22T01:55:41.381Z,71.30
2023-03-22T01:58:08.252Z,71.20
2023-03-22T02:00:35.376Z,71.30
2023-03-22T02:03:02.305Z,71.30
2023-03-22T02:05:30.183Z,71.30
2023-03-22T02:07:56.932Z,71.30
2023-03-22T02:10:26.457Z,71.20
2023-03-22T02:13:12.463Z,71.20
2023-03-22T02:15:47.482Z,71.20
2023-03-22T02:18:55.811Z,71.30
2023-03-22T02:21:46.539Z,71.20
2023-03-22T02:24:35.140Z,71.30
2023-03-22T02:27:06.438Z,71.30
2023-03-22T02:30:13.598Z,71.20
2023-03-22T02:33:06.810Z,71.30
2023-03-22T02:35:36.968Z,71.40
2023-03-22T02:38:03.551Z,71.30
2023-03-22T02:40:38.053Z,71.30
2023-03-22T02:43:26.112Z,71.40
2023-03-22T02:46:06.080Z,71.40
2023-03-22T02:48:44.487Z,71.40
2023-03-22T02:51:21.261Z,71.50
2023-03-22T02:54:03.291Z,71.60
2023-03-22T02:56:53.133Z,71.50
2023-03-22T02:59:23.093Z,71.50
2023-03-22T03:01:54.506Z,71.50
2023-03-22T03:04:26.757Z,71.50
2023-03-22T03:06:57.338Z,71.50
2023-03-22T03:09:24.981Z,71.50
2023-03-22T03:11:53.555Z,71.50
2023-03-22T03:14:22.402Z,71.50
2023-03-22T03:17:09.528Z,71.60
2023-03-22T03:19:51.646Z,71.70
2023-03-22T03:22:27.329Z,71.70
2023-03-22T03:25:12.658Z,71.70
2023-03-22T03:28:13.730Z,71.70
2023-03-22T03:30:57.884Z,71.70
2023-03-22T03:33:28.056Z,71.70
2023-03-22T03:36:02.768Z,71.60
2023-03-22T03:38:37.681Z,71.50
2023-03-22T03:41:09.300Z,71.60
2023-03-22T03:43:36.443Z,71.60
2023-03-22T03:46:03.407Z,71.60
2023-03-22T03:48:35.563Z,71.70
2023-03-22T03:51:03.467Z,71.80
2023-03-22T03:53:30.887Z,71.70
2023-03-22T03:55:57.508Z,71.70
2023-03-22T03:58:24.151Z,71.60
2023-03-22T04:00:51.080Z,71.60
2023-03-22T04:03:17.764Z,71.70
2023-03-22T04:05:45.221Z,71.70
2023-03-22T04:08:11.850Z,71.80
2023-03-22T04:10:38.819Z,71.80
2023-03-22T04:13:05.578Z,71.80
2023-03-22T04:15:32.813Z,71.80
2023-03-22T04:17:59.678Z,71.90
2023-03-22T04:20:26.953Z,71.90
2023-03-22T04:22:53.625Z,72.00
2023-03-22T04:25:22.685Z,72.00
2023-03-22T04:27:51.166Z,72.10
2023-03-22T04:30:22.197Z,72.00
2023-03-22T04:32:49.927Z,72.00
2023-03-22T04:35:16.858Z,72.00
2023-03-22T04:37:43.651Z,72.00
2023-03-22T04:40:17.154Z,72.10
2023-03-22T04:42:45.476Z,72.10
2023-03-22T04:45:13.624Z,72.20
2023-03-22T04:47:40.723Z,72.20
2023-03-22T04:50:08.268Z,72.20
2023-03-22T04:52:34.933Z,72.20
2023-03-22T04:55:01.519Z,72.20
2023-03-22T04:57:28.116Z,72.20
2023-03-22T04:59:54.713Z,72.20
2023-03-22T05:02:21.389Z,72.10
2023-03-22T05:04:48.046Z,72.10
2023-03-22T05:07:14.667Z,72.10
2023-03-22T05:09:41.390Z,72.10
2023-03-22T05:12:08.032Z,72.10
2023-03-22T05:14:34.710Z,72.10
2023-03-22T05:17:01.344Z,72.00
2023-03-22T05:19:27.948Z,72.00
2023-03-22T05:21:58.236Z,71.90
2023-03-22T05:24:25.098Z,72.00
2023-03-22T05:26:53.761Z,72.00
2023-03-22T05:29:21.477Z,72.00
2023-03-22T05:31:48.449Z,72.00
2023-03-22T05:34:15.091Z,72.00
2023-03-22T05:36:41.757Z,71.90
2023-03-22T05:39:08.895Z,71.90
2023-03-22T05:41:36.747Z,71.90
2023-03-22T05:44:04.851Z,71.80
2023-03-22T05:46:31.686Z,71.80
2023-03-22T05:48:58.339Z,71.80
2023-03-22T05:51:26.070Z,71.70
2023-03-22T05:53:56.205Z,71.60
2023-03-22T05:56:24.282Z,71.60
2023-03-22T05:58:51.675Z,71.60
2023-03-22T06:01:20.396Z,71.60
2023-03-22T06:03:48.502Z,71.50
2023-03-22T06:06:15.755Z,71.40
2023-03-22T06:08:42.738Z,71.20
2023-03-22T06:11:09.975Z,71.10
2023-03-22T06:13:37.453Z,71.00
2023-03-22T06:16:05.617Z,70.90
2023-03-22T06:18:33.188Z,70.90
2023-03-22T06:21:00.160Z,70.80
2023-03-22T06:23:27.296Z,70.70
2023-03-22T06:25:53.971Z,70.60
2023-03-22T06:28:20.621Z,69.40
2023-03-22T06:30:47.291Z,67.00
2023-03-22T06:33:14.289Z,65.50
2023-03-22T06:35:41.175Z,65.60
2023-03-22T06:38:07.866Z,66.20
2023-03-22T06:40:35.768Z,66.90
2023-03-22T06:43:06.379Z,67.30
2023-03-22T06:45:33.683Z,67.60
2023-03-22T06:48:01.061Z,67.80
2023-03-22T06:50:28.987Z,68.00
2023-03-22T06:52:55.985Z,68.10
2023-03-22T06:55:22.601Z,68.30
2023-03-22T06:57:49.188Z,68.30
2023-03-22T07:00:16.568Z,68.10
2023-03-22T07:02:43.368Z,67.90
2023-03-22T07:05:10.669Z,67.70
2023-03-22T07:07:37.276Z,67.60
2023-03-22T07:10:04.398Z,67.60
2023-03-22T07:12:31.105Z,67.60
2023-03-22T07:14:57.953Z,67.50
2023-03-22T07:17:24.683Z,67.20
2023-03-22T07:19:51.450Z,67.00
2023-03-22T07:22:18.138Z,66.80
2023-03-22T07:24:56.248Z,66.70
2023-03-22T07:27:23.812Z,66.50
2023-03-22T07:29:50.493Z,66.40
2023-03-22T07:32:17.198Z,66.20
2023-03-22T07:34:43.993Z,66.00
2023-03-22T07:37:10.786Z,65.80
2023-03-22T07:39:37.469Z,65.60
2023-03-22T07:42:04.291Z,65.50
2023-03-22T07:44:31.199Z,65.40
2023-03-22T07:46:57.857Z,64.90
2023-03-22T07:49:24.509Z,64.50
2023-03-22T07:51:51.109Z,64.10
2023-03-22T07:54:32.158Z,63.80
2023-03-22T07:57:00.136Z,63.30
2023-03-22T07:59:26.966Z,62.60
2023-03-22T08:01:53.577Z,62.00
2023-03-22T08:04:22.344Z,61.10
2023-03-22T08:06:49.768Z,60.50
2023-03-22T08:09:16.442Z,59.70
2023-03-22T08:11:43.289Z,58.90
2023-03-22T08:14:09.953Z,58.30
2023-03-22T08:16:38.608Z,57.60
2023-03-22T08:19:05.627Z,57.10
2023-03-22T08:21:33.613Z,56.40
2023-03-22T08:24:00.328Z,55.90
2023-03-22T08:26:27.710Z,55.30
2023-03-22T08:28:54.494Z,54.90
2023-03-22T08:31:21.274Z,54.50
2023-03-22T08:33:50.293Z,54.20
2023-03-22T08:36:20.114Z,53.90
2023-03-22T08:38:46.890Z,53.50
2023-03-22T08:41:13.860Z,53.30
2023-03-22T08:43:40.529Z,53.00
2023-03-22T08:46:07.280Z,52.60
2023-03-22T08:48:35.650Z,52.40
2023-03-22T08:51:02.336Z,52.00
2023-03-22T08:53:29.017Z,51.40
2023-03-22T08:55:57.967Z,51.00
2023-03-22T08:58:24.899Z,50.80
2023-03-22T09:00:51.695Z,50.50
2023-03-22T09:03:18.428Z,50.10
2023-03-22T09:05:45.228Z,50.00
2023-03-22T09:08:18.577Z,49.60
2023-03-22T09:10:52.469Z,49.40
2023-03-22T09:13:20.615Z,49.00
2023-03-22T09:15:47.893Z,48.70
2023-03-22T09:18:16.152Z,48.40
2023-03-22T09:20:44.571Z,48.10
2023-03-22T09:23:11.721Z,47.60
2023-03-22T09:25:39.044Z,46.70
2023-03-22T09:28:06.059Z,46.30
2023-03-22T09:30:32.741Z,45.70
2023-03-22T09:32:59.310Z,45.40
2023-03-22T09:35:25.922Z,45.30
2023-03-22T09:37:54.409Z,45.20
2023-03-22T09:40:24.825Z,44.70
2023-03-22T09:42:54.630Z,44.50
2023-03-22T09:45:32.165Z,44.70
2023-03-22T09:47:59.806Z,44.20
2023-03-22T09:50:31.114Z,44.20
2023-03-22T09:52:59.167Z,43.50
2023-03-22T09:55:45.902Z,43.00
2023-03-22T09:58:25.838Z,42.30
2023-03-22T10:01:03.044Z,42.20
2023-03-22T10:03:57.071Z,42.00
2023-03-22T10:06:29.425Z,41.50
2023-03-22T10:09:22.609Z,41.50
2023-03-22T10:12:11.786Z,41.60
2023-03-22T10:14:48.716Z,41.40
2023-03-22T10:17:19.326Z,41.50
2023-03-22T10:20:03.216Z,41.40
2023-03-22T10:22:34.731Z,41.40
2023-03-22T10:25:02.461Z,41.50
2023-03-22T10:27:31.513Z,41.60
2023-03-22T10:30:29.928Z,41.60
2023-03-22T10:33:02.738Z,41.50
2023-03-22T10:35:30.789Z,41.40
2023-03-22T10:38:00.796Z,41.30
2023-03-22T10:40:31.488Z,41.20
2023-03-22T10:43:03.908Z,41.10
2023-03-22T10:45:33.552Z,41.10
2023-03-22T10:48:25.028Z,41.30
2023-03-22T10:50:51.761Z,41.50
2023-03-22T10:53:47.967Z,41.80
2023-03-22T10:56:18.876Z,42.00
2023-03-22T10:58:45.952Z,42.10
2023-03-22T11:01:15.370Z,42.00
2023-03-22T11:03:43.227Z,41.80
2023-03-22T11:06:23.681Z,41.80
2023-03-22T11:09:16.528Z,41.80
2023-03-22T11:11:54.292Z,41.80
2023-03-22T11:14:25.084Z,42.00
2023-03-22T11:16:51.656Z,42.10
2023-03-22T11:19:26.206Z,42.30
2023-03-22T11:21:57.401Z,42.00
2023-03-22T11:24:28.465Z,41.80
2023-03-22T11:27:18.921Z,41.40
2023-03-22T11:29:49.466Z,41.30
2023-03-22T11:32:33.143Z,41.10
2023-03-22T11:35:04.392Z,40.80
2023-03-22T11:37:31.389Z,40.90
2023-03-22T11:40:01.795Z,40.90
2023-03-22T11:42:28.708Z,41.00
2023-03-22T11:45:02.010Z,41.20
2023-03-22T11:47:34.422Z,41.10
2023-03-22T11:50:06.521Z,41.10
2023-03-22T11:52:33.897Z,41.10
2023-03-22T11:55:01.498Z,41.60
2023-03-22T11:57:31.524Z,41.10
2023-03-22T12:00:12.351Z,41.00
2023-03-22T12:02:48.269Z,41.00
2023-03-22T12:05:24.394Z,41.10
2023-03-22T12:08:03.420Z,40.80
2023-03-22T12:10:53.780Z,40.60
2023-03-22T12:13:43.837Z,40.50
2023-03-22T12:16:14.831Z,40.40
2023-03-22T12:18:49.120Z,40.40
2023-03-22T12:21:16.670Z,39.80
2023-03-22T12:23:43.387Z,39.70
2023-03-22T12:26:26.022Z,39.70
2023-03-22T12:29:18.104Z,39.70
2023-03-22T12:31:59.222Z,40.00
2023-03-22T12:34:35.835Z,40.10
2023-03-22T12:37:05.811Z,40.20
2023-03-22T12:39:42.963Z,40.40
2023-03-22T12:42:25.910Z,40.40
2023-03-22T12:45:05.215Z,40.40
2023-03-22T12:47:46.589Z,40.60
2023-03-22T12:50:28.778Z,40.40
2023-03-22T12:52:57.033Z,40.40
2023-03-22T12:55:26.019Z,40.30
2023-03-22T12:57:54.565Z,40.30
2023-03-22T13:00:33.942Z,40.00
2023-03-22T13:03:10.363Z,39.90
2023-03-22T13:05:37.719Z,39.70
2023-03-22T13:08:05.731Z,39.70
2023-03-22T13:10:36.746Z,39.80
2023-03-22T13:13:15.529Z,39.70
2023-03-22T13:16:10.585Z,39.30
2023-03-22T13:18:40.269Z,39.50
2023-03-22T13:21:19.326Z,39.50
2023-03-22T13:24:06.406Z,39.30
2023-03-22T13:26:47.693Z,39.40
2023-03-22T13:29:19.938Z,39.60
2023-03-22T13:31:53.895Z,39.60
2023-03-22T13:34:33.204Z,39.40
2023-03-22T13:37:01.674Z,39.30
2023-03-22T13:39:34.619Z,39.40
2023-03-22T13:42:38.309Z,39.00
2023-03-22T13:45:09.350Z,39.20
2023-03-22T13:47:46.710Z,39.20
2023-03-22T13:50:18.637Z,39.20
2023-03-22T13:53:04.204Z,39.30
2023-03-22T13:55:57.398Z,39.40
2023-03-22T13:58:49.580Z,39.30
2023-03-22T14:01:29.332Z,39.00
2023-03-22T14:04:01.190Z,38.50
2023-03-22T14:06:33.685Z,38.30
2023-03-22T14:09:25.128Z,38.30
2023-03-22T14:12:12.660Z,38.40
2023-03-22T14:14:46.913Z,38.50
2023-03-22T14:17:26.663Z,38.50
2023-03-22T14:19:54.087Z,38.60
